Terminal Aerodrome Forecast
Issued by NWS

Home | Current Version | Previous Version | Graphics & Text | Print | Product List | Glossary On
Versions: 1 2 3 4 5 6 7 8 9 10 11 12 13 14 15 16 17 18 19 20 21
325
FTUS43 KICT 181730
TAFCNU
TAF
KCNU 181730Z 1818/1918 18007KT P6SM BKN070
     FM190300 16005KT 6SM BR BKN025
     FM190600 16004KT 2SM -DZ BR OVC003
     FM190900 15004KT 1/2SM -DZ FG OVC003
     FM191500 15005KT 1SM BR OVC003=

USA.gov is the U.S. government's official web portal to all federal, state and local government web resources and services.